createdAt,value
2018-02-18T00:00:11.481Z,-0.72
2018-02-18T00:01:11.505Z,-0.8
2018-02-18T00:02:10.866Z,-0.8
2018-02-18T00:03:11.104Z,-0.8
2018-02-18T00:04:11.353Z,-0.84
2018-02-18T00:05:11.327Z,-0.77
2018-02-18T00:06:11.302Z,-0.84
2018-02-18T00:07:11.309Z,-0.91
2018-02-18T00:08:11.234Z,-0.8
2018-02-18T00:09:11.106Z,-0.84
2018-02-18T00:10:10.965Z,-0.86
2018-02-18T00:11:10.991Z,-0.81
2018-02-18T00:12:11.160Z,-0.81
2018-02-18T00:13:10.856Z,-0.86
2018-02-18T00:14:10.568Z,-0.91
2018-02-18T00:15:11.176Z,-0.91
2018-02-18T00:16:11.056Z,-0.95
2018-02-18T00:17:11.082Z,-0.97
2018-02-18T00:18:11.077Z,-0.91
2018-02-18T00:19:11.034Z,-0.95
2018-02-18T00:20:10.806Z,-0.91
2018-02-18T00:21:10.822Z,-0.89
2018-02-18T00:22:10.812Z,-0.97
2018-02-18T00:23:10.608Z,-0.89
2018-02-18T00:24:10.848Z,-0.95
2018-02-18T00:25:10.819Z,-0.89
2018-02-18T00:26:10.798Z,-0.99
2018-02-18T00:27:10.776Z,-1
2018-02-18T00:28:10.484Z,-1.03
2018-02-18T00:29:10.458Z,-0.99
2018-02-18T00:30:10.439Z,-0.92
2018-02-18T00:31:10.676Z,-1
2018-02-18T00:32:10.644Z,-1.05
2018-02-18T00:33:10.097Z,-1.03
2018-02-18T00:34:10.339Z,-1.02
2018-02-18T00:35:10.590Z,-0.94
2018-02-18T00:36:10.549Z,-0.99
2018-02-18T00:37:10.258Z,-1
2018-02-18T00:38:10.231Z,-1.02
2018-02-18T00:39:10.466Z,-1.02
2018-02-18T00:40:10.452Z,-0.95
2018-02-18T00:41:10.152Z,-1.02
2018-02-18T00:42:10.130Z,-1.06
2018-02-18T00:43:10.108Z,-0.95
2018-02-18T00:44:09.817Z,-1.02
2018-02-18T00:45:10.057Z,-1.05
2018-02-18T00:46:10.297Z,-0.97
2018-02-18T00:47:10.008Z,-1.06
2018-02-18T00:48:10.247Z,-1.05
2018-02-18T00:49:09.954Z,-1.07
2018-02-18T00:50:09.928Z,-0.95
2018-02-18T00:51:10.166Z,-1.06
2018-02-18T00:52:10.152Z,-1.07
2018-02-18T00:53:09.860Z,-1
2018-02-18T00:54:09.565Z,-1.1
2018-02-18T00:55:09.802Z,-1.05
2018-02-18T00:56:09.509Z,-1.03
2018-02-18T00:57:09.751Z,-1.09
2018-02-18T00:58:09.991Z,-1.03
2018-02-18T00:59:09.703Z,-1.07
2018-02-18T01:00:09.676Z,-1.06
2018-02-18T01:01:09.654Z,-1.1
2018-02-18T01:02:09.628Z,-1.1
2018-02-18T01:03:09.340Z,-1.07
2018-02-18T01:04:09.310Z,-1.05
2018-02-18T01:05:09.867Z,-1.06
2018-02-18T01:06:09.529Z,-1.02
2018-02-18T01:07:09.505Z,-1
2018-02-18T01:08:09.486Z,-1.02
2018-02-18T01:09:09.762Z,-1.05
2018-02-18T01:10:09.689Z,-1
2018-02-18T01:11:09.408Z,-1.06
2018-02-18T01:12:09.641Z,-0.99
2018-02-18T01:13:09.092Z,-0.91
2018-02-18T01:14:09.327Z,-0.95
2018-02-18T01:15:09.569Z,-0.99
2018-02-18T01:16:09.269Z,-0.94
2018-02-18T01:17:09.255Z,-0.99
2018-02-18T01:18:08.961Z,-1
2018-02-18T01:19:09.468Z,-0.94
2018-02-18T01:20:08.921Z,-1
2018-02-18T01:21:08.881Z,-0.92
2018-02-18T01:22:09.127Z,-0.94
2018-02-18T01:23:09.363Z,-0.87
2018-02-18T01:24:09.344Z,-0.89
2018-02-18T01:25:09.316Z,-0.91
2018-02-18T01:26:08.761Z,-1
2018-02-18T01:27:08.992Z,-0.94
2018-02-18T01:28:09.237Z,-0.97
2018-02-18T01:29:09.205Z,-0.87
2018-02-18T01:30:08.977Z,-0.91
2018-02-18T01:31:08.901Z,-0.94
2018-02-18T01:32:09.138Z,-1
2018-02-18T01:33:08.845Z,-0.89
2018-02-18T01:34:09.082Z,-0.95
2018-02-18T01:35:08.577Z,-0.94
2018-02-18T01:36:09.038Z,-0.95
2018-02-18T01:37:09.006Z,-0.89
2018-02-18T01:38:08.717Z,-0.91
2018-02-18T01:39:08.688Z,-1
2018-02-18T01:40:08.669Z,-0.91
2018-02-18T01:41:08.911Z,-1.02
2018-02-18T01:42:08.882Z,-1.02
2018-02-18T01:43:08.865Z,-0.99
2018-02-18T01:44:08.568Z,-1.02
2018-02-18T01:45:08.804Z,-0.97
2018-02-18T01:46:08.247Z,-0.99
2018-02-18T01:47:08.754Z,-1.02
2018-02-18T01:48:08.192Z,-0.94
2018-02-18T01:49:08.443Z,-1.02
2018-02-18T01:50:08.472Z,-0.92
2018-02-18T01:51:08.658Z,-0.94
2018-02-18T01:52:08.364Z,-0.99
2018-02-18T01:53:08.334Z,-0.92
2018-02-18T01:54:08.632Z,-1.03
2018-02-18T01:55:08.552Z,-0.95
2018-02-18T01:56:08.525Z,-0.97
2018-02-18T01:57:08.500Z,-1.05
2018-02-18T01:58:08.475Z,-1.03
2018-02-18T01:59:08.185Z,-0.94
2018-02-18T02:00:08.478Z,-1.07
2018-02-18T02:01:08.404Z,-0.94
2018-02-18T02:02:08.582Z,-1.03
2018-02-18T02:03:08.086Z,-1.06
2018-02-18T02:04:08.066Z,-1.05
2018-02-18T02:05:08.302Z,-0.99
2018-02-18T02:06:08.008Z,-1.06
2018-02-18T02:07:08.252Z,-0.97
2018-02-18T02:08:07.959Z,-1
2018-02-18T02:09:07.936Z,-0.94
2018-02-18T02:10:08.172Z,-1.05
2018-02-18T02:11:08.150Z,-0.97
2018-02-18T02:12:08.125Z,-1.03
2018-02-18T02:13:07.828Z,-1.02
2018-02-18T02:14:08.081Z,-1.06
2018-02-18T02:15:08.040Z,-1
2018-02-18T02:16:07.754Z,-0.95
2018-02-18T02:17:07.727Z,-0.97
2018-02-18T02:18:07.719Z,-1
2018-02-18T02:19:07.682Z,-0.92
2018-02-18T02:20:07.396Z,-0.92
2018-02-18T02:21:07.895Z,-1
2018-02-18T02:22:07.867Z,-0.95
2018-02-18T02:23:07.603Z,-1
2018-02-18T02:24:07.838Z,-1
2018-02-18T02:25:07.797Z,-0.99
2018-02-18T02:26:07.500Z,-1
2018-02-18T02:27:07.757Z,-1.03
2018-02-18T02:28:07.725Z,-0.95
2018-02-18T02:29:07.692Z,-1.06
2018-02-18T02:30:07.672Z,-1.06
2018-02-18T02:31:07.645Z,-1.06
2018-02-18T02:32:07.355Z,-1.06
2018-02-18T02:33:07.344Z,-1.1
2018-02-18T02:34:07.319Z,-1.06
2018-02-18T02:35:07.559Z,-1.1
2018-02-18T02:36:07.304Z,-1.15
2018-02-18T02:37:07.517Z,-1.12
2018-02-18T02:38:07.208Z,-1.12
2018-02-18T02:39:07.187Z,-1.06
2018-02-18T02:40:07.415Z,-1.21
2018-02-18T02:41:07.150Z,-1.17
2018-02-18T02:42:06.830Z,-1.21
2018-02-18T02:43:06.803Z,-1.13
2018-02-18T02:44:07.065Z,-1.21
2018-02-18T02:45:07.292Z,-1.21
2018-02-18T02:46:07.259Z,-1.21
2018-02-18T02:47:07.235Z,-1.23
2018-02-18T02:48:06.944Z,-1.25
2018-02-18T02:49:07.192Z,-1.2
2018-02-18T02:50:07.159Z,-1.27
2018-02-18T02:51:06.607Z,-1.27
2018-02-18T02:52:07.109Z,-1.31
2018-02-18T02:53:07.087Z,-1.21
2018-02-18T02:54:06.525Z,-1.33
2018-02-18T02:55:06.770Z,-1.28
2018-02-18T02:56:06.737Z,-1.35
2018-02-18T02:57:06.989Z,-1.41
2018-02-18T02:58:06.693Z,-1.39
2018-02-18T02:59:06.673Z,-1.36
2018-02-18T03:00:06.647Z,-1.38
2018-02-18T03:01:06.877Z,-1.48
2018-02-18T03:02:06.587Z,-1.42
2018-02-18T03:03:06.568Z,-1.42
2018-02-18T03:04:06.809Z,-1.49
2018-02-18T03:05:06.780Z,-1.41
2018-02-18T03:06:06.219Z,-1.54
2018-02-18T03:07:06.463Z,-1.45
2018-02-18T03:08:06.747Z,-1.48
2018-02-18T03:09:06.740Z,-1.45
2018-02-18T03:10:06.381Z,-1.49
2018-02-18T03:11:06.670Z,-1.43
2018-02-18T03:12:06.601Z,-1.43
2018-02-18T03:13:06.312Z,-1.56
2018-02-18T03:14:06.278Z,-1.53
2018-02-18T03:15:06.257Z,-1.59
2018-02-18T03:16:06.228Z,-1.54
2018-02-18T03:17:06.472Z,-1.54
2018-02-18T03:18:06.455Z,-1.53
2018-02-18T03:19:06.419Z,-1.51
2018-02-18T03:20:06.137Z,-1.48
2018-02-18T03:21:06.096Z,-1.45
2018-02-18T03:22:06.343Z,-1.56
2018-02-18T03:23:06.051Z,-1.53
2018-02-18T03:24:07.109Z,-1.54
2018-02-18T03:25:06.269Z,-1.51
2018-02-18T03:26:06.237Z,-1.43
2018-02-18T03:27:06.215Z,-1.49
2018-02-18T03:28:05.926Z,-1.54
2018-02-18T03:29:05.901Z,-1.49
2018-02-18T03:30:06.142Z,-1.49
2018-02-18T03:31:06.140Z,-1.51
2018-02-18T03:32:05.895Z,-1.49
2018-02-18T03:33:06.062Z,-1.53
2018-02-18T03:34:06.033Z,-1.6
2018-02-18T03:35:05.477Z,-1.6
2018-02-18T03:36:05.982Z,-1.54
2018-02-18T03:37:05.698Z,-1.48
2018-02-18T03:38:05.400Z,-1.63
2018-02-18T03:39:05.642Z,-1.6
2018-02-18T03:40:05.883Z,-1.6
2018-02-18T03:41:05.584Z,-1.53
2018-02-18T03:42:05.892Z,-1.64
2018-02-18T03:43:05.800Z,-1.6
2018-02-18T03:44:05.792Z,-1.64
2018-02-18T03:45:05.235Z,-1.64
2018-02-18T03:46:05.196Z,-1.59
2018-02-18T03:47:05.715Z,-1.67
2018-02-18T03:48:05.427Z,-1.6
2018-02-18T03:49:05.659Z,-1.67
2018-02-18T03:50:05.093Z,-1.67
2018-02-18T03:51:05.610Z,-1.6
2018-02-18T03:52:05.097Z,-1.64
2018-02-18T03:53:05.288Z,-1.54
2018-02-18T03:54:05.720Z,-1.67
2018-02-18T03:55:05.225Z,-1.67
2018-02-18T03:56:05.474Z,-1.51
2018-02-18T03:57:05.445Z,-1.64
2018-02-18T03:58:05.152Z,-1.62
2018-02-18T03:59:05.412Z,-1.63
2018-02-18T04:00:04.832Z,-1.67
2018-02-18T04:01:05.071Z,-1.7
2018-02-18T04:02:04.781Z,-1.72
2018-02-18T04:03:05.290Z,-1.72
2018-02-18T04:04:05.264Z,-1.69
2018-02-18T04:05:04.969Z,-1.67
2018-02-18T04:06:04.943Z,-1.66
2018-02-18T04:07:05.195Z,-1.66
2018-02-18T04:08:04.893Z,-1.63
2018-02-18T04:09:05.131Z,-1.66
2018-02-18T04:10:05.110Z,-1.67
2018-02-18T04:11:04.548Z,-1.67
2018-02-18T04:12:05.057Z,-1.67
2018-02-18T04:13:04.500Z,-1.63
2018-02-18T04:14:04.742Z,-1.59
2018-02-18T04:15:04.978Z,-1.62
2018-02-18T04:16:04.682Z,-1.74
2018-02-18T04:17:04.933Z,-1.74
2018-02-18T04:18:04.365Z,-1.72
2018-02-18T04:19:04.876Z,-1.75
2018-02-18T04:20:04.855Z,-1.72
2018-02-18T04:21:04.829Z,-1.64
2018-02-18T04:22:04.836Z,-1.67
2018-02-18T04:23:04.503Z,-1.75
2018-02-18T04:24:04.476Z,-1.72
2018-02-18T04:25:04.446Z,-1.75
2018-02-18T04:26:04.425Z,-1.77
2018-02-18T04:27:04.401Z,-1.64
2018-02-18T04:28:04.645Z,-1.67
2018-02-18T04:29:04.617Z,-1.62
2018-02-18T04:30:04.586Z,-1.81
2018-02-18T04:31:04.564Z,-1.75
2018-02-18T04:32:04.277Z,-1.77
2018-02-18T04:33:04.242Z,-1.92
2018-02-18T04:34:03.952Z,-1.72
2018-02-18T04:35:04.461Z,-1.8
2018-02-18T04:36:04.168Z,-1.78
2018-02-18T04:37:04.142Z,-1.77
2018-02-18T04:38:04.116Z,-1.64
2018-02-18T04:39:04.083Z,-1.78
2018-02-18T04:40:04.061Z,-1.8
2018-02-18T04:41:04.036Z,-1.77
2018-02-18T04:42:04.278Z,-1.77
2018-02-18T04:43:04.250Z,-1.8
2018-02-18T04:44:03.960Z,-1.8
2018-02-18T04:45:04.203Z,-1.75
2018-02-18T04:46:04.173Z,-1.77
2018-02-18T04:47:03.878Z,-1.8
2018-02-18T04:48:03.582Z,-1.75
2018-02-18T04:49:03.825Z,-1.75
2018-02-18T04:50:03.801Z,-1.78
2018-02-18T04:51:03.507Z,-1.77
2018-02-18T04:52:03.745Z,-1.7
2018-02-18T04:53:03.740Z,-1.69
2018-02-18T04:54:03.698Z,-1.75
2018-02-18T04:55:03.929Z,-1.77
2018-02-18T04:56:03.650Z,-1.8
2018-02-18T04:57:03.885Z,-1.81
2018-02-18T04:58:03.589Z,-1.77
2018-02-18T04:59:03.834Z,-1.81
2018-02-18T05:00:03.537Z,-1.77
2018-02-18T05:01:03.514Z,-1.78
2018-02-18T05:02:03.484Z,-1.77
2018-02-18T05:03:03.464Z,-1.77
2018-02-18T05:04:03.436Z,-1.8
2018-02-18T05:05:03.410Z,-1.69
2018-02-18T05:06:03.645Z,-1.69
2018-02-18T05:07:03.620Z,-1.78
2018-02-18T05:08:03.337Z,-1.78
2018-02-18T05:09:03.305Z,-1.82
2018-02-18T05:10:03.542Z,-1.8
2018-02-18T05:11:03.252Z,-1.8
2018-02-18T05:12:03.228Z,-1.85
2018-02-18T05:13:03.198Z,-1.81
2018-02-18T05:14:03.182Z,-1.78
2018-02-18T05:15:03.152Z,-1.75
2018-02-18T05:16:03.404Z,-1.81
2018-02-18T05:17:03.380Z,-1.78
2018-02-18T05:18:03.072Z,-1.78
2018-02-18T05:19:03.054Z,-1.87
2018-02-18T05:20:02.754Z,-1.82
2018-02-18T05:21:03.271Z,-1.9
2018-02-18T05:22:03.249Z,-1.81
2018-02-18T05:23:02.941Z,-1.92
2018-02-18T05:24:02.850Z,-1.93
2018-02-18T05:25:02.887Z,-1.92
2018-02-18T05:26:03.130Z,-1.95
2018-02-18T05:27:02.834Z,-1.96
2018-02-18T05:28:02.810Z,-1.99
2018-02-18T05:29:03.060Z,-2.05
2018-02-18T05:30:02.762Z,-2
2018-02-18T05:31:02.472Z,-2.13
2018-02-18T05:32:02.707Z,-2.18
2018-02-18T05:33:02.943Z,-2.18
2018-02-18T05:34:02.654Z,-2.13
2018-02-18T05:35:02.623Z,-2.16
2018-02-18T05:36:02.609Z,-2.16
2018-02-18T05:37:02.576Z,-2.16
2018-02-18T05:38:02.284Z,-2.17
2018-02-18T05:39:02.518Z,-2.13
2018-02-18T05:40:02.229Z,-2.13
2018-02-18T05:41:02.468Z,-2.17
2018-02-18T05:42:02.713Z,-2.2
2018-02-18T05:43:02.421Z,-2.16
2018-02-18T05:44:02.127Z,-2.2
2018-02-18T05:45:02.638Z,-2.16
2018-02-18T05:46:02.601Z,-2.18
2018-02-18T05:47:02.311Z,-2.13
2018-02-18T05:48:02.591Z,-2.21
2018-02-18T05:49:02.260Z,-2.17
2018-02-18T05:50:01.967Z,-2.16
2018-02-18T05:51:02.475Z,-2.17
2018-02-18T05:52:02.190Z,-2.08
2018-02-18T05:53:02.424Z,-2.17
2018-02-18T05:54:02.391Z,-2.18
2018-02-18T05:55:02.366Z,-2.08
2018-02-18T05:56:01.811Z,-2.18
2018-02-18T05:57:02.055Z,-2.28
2018-02-18T05:58:02.025Z,-2.23
2018-02-18T05:59:02.000Z,-2.23
2018-02-18T06:00:02.239Z,-2.17
2018-02-18T06:01:01.949Z,-2.18
2018-02-18T06:02:01.925Z,-2.21
2018-02-18T06:03:02.170Z,-2.17
2018-02-18T06:04:01.863Z,-2.23
2018-02-18T06:05:02.107Z,-2.1
2018-02-18T06:06:01.816Z,-2.16
2018-02-18T06:07:02.053Z,-2.18
2018-02-18T06:08:01.768Z,-2.1
2018-02-18T06:09:01.478Z,-2.16
2018-02-18T06:10:01.715Z,-2.16
2018-02-18T06:11:01.419Z,-2.11
2018-02-18T06:12:01.394Z,-2.03
2018-02-18T06:13:01.909Z,-2.03
2018-02-18T06:14:01.615Z,-2.05
2018-02-18T06:15:01.577Z,-2.14
2018-02-18T06:16:01.814Z,-2.17
2018-02-18T06:17:01.526Z,-2.11
2018-02-18T06:18:01.236Z,-2.11
2018-02-18T06:19:01.472Z,-2.1
2018-02-18T06:20:01.184Z,-2.1
2018-02-18T06:21:01.693Z,-2.18
2018-02-18T06:22:01.662Z,-2.17
2018-02-18T06:23:01.378Z,-2.13
2018-02-18T06:24:01.339Z,-2.18
2018-02-18T06:25:01.328Z,-2.2
2018-02-18T06:26:01.359Z,-2.18
2018-02-18T06:27:01.268Z,-2.18
2018-02-18T06:28:00.974Z,-2.18
2018-02-18T06:29:01.209Z,-2.14
2018-02-18T06:30:01.223Z,-2.14
2018-02-18T06:31:00.929Z,-2.14
2018-02-18T06:32:01.405Z,-2.17
2018-02-18T06:33:01.374Z,-2.18
2018-02-18T06:34:01.349Z,-2.18
2018-02-18T06:35:01.062Z,-2.14
2018-02-18T06:36:01.037Z,-2.14
2018-02-18T06:37:01.012Z,-2.16
2018-02-18T06:38:00.989Z,-2.18
2018-02-18T06:39:01.215Z,-2.16
2018-02-18T06:40:00.928Z,-2.16
2018-02-18T06:41:01.159Z,-2.13
2018-02-18T06:42:00.612Z,-2.14
2018-02-18T06:43:00.579Z,-2.2
2018-02-18T06:44:00.813Z,-2.18
2018-02-18T06:45:01.053Z,-2.13
2018-02-18T06:46:00.762Z,-2.18
2018-02-18T06:47:00.856Z,-2.16
2018-02-18T06:48:01.031Z,-2.18
2018-02-18T06:49:00.689Z,-2.16
2018-02-18T06:50:00.394Z,-2.26
2018-02-18T06:51:00.375Z,-2.23
2018-02-18T06:52:00.621Z,-2.32
2018-02-18T06:53:00.845Z,-2.28
2018-02-18T06:54:00.574Z,-2.29
2018-02-18T06:55:00.800Z,-2.23
2018-02-18T06:56:00.248Z,-2.29
2018-02-18T06:57:00.757Z,-2.29
2018-02-18T06:58:00.522Z,-2.33
2018-02-18T06:59:00.436Z,-2.32
2018-02-18T07:00:00.679Z,-2.35
2018-02-18T07:01:00.717Z,-2.33
2018-02-18T07:02:00.343Z,-2.35
2018-02-18T07:03:00.320Z,-2.35
2018-02-18T07:04:00.030Z,-2.35
2018-02-18T07:05:00.269Z,-2.36
2018-02-18T07:06:00.523Z,-2.38
2018-02-18T07:07:00.218Z,-2.33
2018-02-18T07:08:00.201Z,-2.2
2018-02-18T07:09:00.168Z,-2.23
2018-02-18T07:10:00.134Z,-2.29
2018-02-18T07:11:00.376Z,-2.21
2018-02-18T07:12:00.349Z,-2.29
2018-02-18T07:13:00.324Z,-2.28
2018-02-18T07:14:00.296Z,-2.23
2018-02-18T07:15:00.021Z,-2.21
2018-02-18T07:16:00.244Z,-2.18
2018-02-18T07:17:00.213Z,-2.2
2018-02-18T07:18:00.231Z,-2.23
2018-02-18T07:18:59.636Z,-2.16
2018-02-18T07:19:59.900Z,-2.14
2018-02-18T07:20:59.844Z,-2.13
2018-02-18T07:22:00.092Z,-2.16
2018-02-18T07:23:00.127Z,-2.1
2018-02-18T07:24:00.249Z,-2.06
2018-02-18T07:25:00.028Z,-2.02
2018-02-18T07:26:00.001Z,-1.99
2018-02-18T07:26:59.690Z,-1.96
2018-02-18T07:27:59.418Z,-1.93
2018-02-18T07:28:59.905Z,-1.96
2018-02-18T07:29:59.877Z,-1.84
2018-02-18T07:30:59.855Z,-1.81
2018-02-18T07:31:59.300Z,-1.82
2018-02-18T07:32:59.470Z,-1.81
2018-02-18T07:33:59.244Z,-1.8
2018-02-18T07:34:59.757Z,-1.78
2018-02-18T07:35:59.457Z,-1.75
2018-02-18T07:36:59.173Z,-1.81
2018-02-18T07:37:59.702Z,-1.75
2018-02-18T07:38:59.383Z,-1.69
2018-02-18T07:39:59.092Z,-1.74
2018-02-18T07:40:59.062Z,-1.77
2018-02-18T07:41:59.299Z,-1.74
2018-02-18T07:42:59.566Z,-1.66
2018-02-18T07:43:59.520Z,-1.67
2018-02-18T07:44:59.225Z,-1.72
2018-02-18T07:45:59.211Z,-1.62
2018-02-18T07:46:59.171Z,-1.62
2018-02-18T07:47:59.154Z,-1.51
2018-02-18T07:48:59.385Z,-1.56
2018-02-18T07:49:59.102Z,-1.45
2018-02-18T07:50:59.074Z,-1.39
2018-02-18T07:51:58.780Z,-1.41
2018-02-18T07:52:59.286Z,-1.3
2018-02-18T07:53:58.993Z,-1.21
2018-02-18T07:54:58.978Z,-1.13
2018-02-18T07:55:58.677Z,-1.03
2018-02-18T07:56:58.934Z,-1.03
2018-02-18T07:57:58.903Z,-1.07
2018-02-18T07:58:59.139Z,-0.97
2018-02-18T07:59:59.105Z,-0.78
2018-02-18T08:00:58.809Z,-0.77
2018-02-18T08:01:59.055Z,-0.62
2018-02-18T08:02:58.500Z,-0.55
2018-02-18T08:03:59.001Z,-0.48
2018-02-18T08:04:58.713Z,-0.41
2018-02-18T08:05:58.686Z,-0.34
2018-02-18T08:06:58.681Z,-0.26
2018-02-18T08:07:58.897Z,-0.24
2018-02-18T08:08:58.610Z,-0.16
2018-02-18T08:09:58.851Z,-0.06
2018-02-18T08:10:58.559Z,0.06
2018-02-18T08:11:58.809Z,0.09
2018-02-18T08:12:58.517Z,0.16
2018-02-18T08:13:58.482Z,0.2
2018-02-18T08:14:58.457Z,0.27
2018-02-18T08:15:58.169Z,0.3
2018-02-18T08:16:58.414Z,0.27
2018-02-18T08:17:58.652Z,0.34
2018-02-18T08:18:58.634Z,0.52
2018-02-18T08:19:58.605Z,0.48
2018-02-18T08:20:58.307Z,0.51
2018-02-18T08:21:58.549Z,0.51
2018-02-18T08:22:58.524Z,0.65
2018-02-18T08:23:58.234Z,0.65
2018-02-18T08:24:58.264Z,0.65
2018-02-18T08:25:58.450Z,0.68
2018-02-18T08:26:58.430Z,0.71
2018-02-18T08:27:58.141Z,0.78
2018-02-18T08:28:58.112Z,0.83
2018-02-18T08:29:58.365Z,0.82
2018-02-18T08:30:57.806Z,0.9
2018-02-18T08:31:58.056Z,0.98
2018-02-18T08:32:58.025Z,1.21
2018-02-18T08:33:57.774Z,1.33
2018-02-18T08:34:57.971Z,1.24
2018-02-18T08:35:57.942Z,1.21
2018-02-18T08:36:57.916Z,1.21
2018-02-18T08:37:58.159Z,1.29
2018-02-18T08:38:57.871Z,1.69
2018-02-18T08:39:57.852Z,2.34
2018-02-18T08:40:57.834Z,2.85
2018-02-18T08:41:57.796Z,3.02
2018-02-18T08:42:57.511Z,3.27
2018-02-18T08:43:57.497Z,4.07
2018-02-18T08:44:57.736Z,4.83
2018-02-18T08:45:57.975Z,5.32
2018-02-18T08:46:57.425Z,5.43
2018-02-18T08:47:57.934Z,5.46
2018-02-18T08:48:57.699Z,5.49
2018-02-18T08:49:57.360Z,5.68
2018-02-18T08:50:57.884Z,6.18
2018-02-18T08:51:57.847Z,6.54
2018-02-18T08:52:57.560Z,6.91
2018-02-18T08:53:57.545Z,7.15
2018-02-18T08:54:57.525Z,6.99
2018-02-18T08:55:57.504Z,6.79
2018-02-18T08:56:57.230Z,6.98
2018-02-18T08:57:57.739Z,7.35
2018-02-18T08:58:57.717Z,7.71
2018-02-18T08:59:57.429Z,8.14
2018-02-18T09:00:57.684Z,8.2
2018-02-18T09:01:57.404Z,8.03
2018-02-18T09:02:57.665Z,8.17
2018-02-18T09:03:57.648Z,7.77
2018-02-18T09:04:57.372Z,7.69
2018-02-18T09:05:57.352Z,7.9
2018-02-18T09:06:57.042Z,8.04
2018-02-18T09:07:57.555Z,8.32
2018-02-18T09:08:57.009Z,8.58
2018-02-18T09:09:57.263Z,8.9
2018-02-18T09:10:57.231Z,8.65
2018-02-18T09:11:57.213Z,8.35
2018-02-18T09:12:57.463Z,8.29
2018-02-18T09:13:57.180Z,8.15
2018-02-18T09:14:57.435Z,8.18
2018-02-18T09:15:57.164Z,8.2
2018-02-18T09:16:57.400Z,8.07
2018-02-18T09:17:57.127Z,7.72
2018-02-18T09:18:57.104Z,7.31
2018-02-18T09:19:57.091Z,6.97
2018-02-18T09:20:57.064Z,6.54
2018-02-18T09:21:56.787Z,6.71
2018-02-18T09:22:56.768Z,7.16
2018-02-18T09:23:57.219Z,7.29
2018-02-18T09:24:57.001Z,7.62
2018-02-18T09:25:57.248Z,7.74
2018-02-18T09:26:56.707Z,7.89
2018-02-18T09:27:56.949Z,7.71
2018-02-18T09:28:56.938Z,7.42
2018-02-18T09:29:57.205Z,7.35
2018-02-18T09:30:56.904Z,7.93
2018-02-18T09:31:57.153Z,8.21
2018-02-18T09:32:56.882Z,8.84
2018-02-18T09:33:56.860Z,8.72
2018-02-18T09:34:57.125Z,8.75
2018-02-18T09:35:56.866Z,8.25
2018-02-18T09:36:57.068Z,7.82
2018-02-18T09:37:57.051Z,7.49
2018-02-18T09:38:57.243Z,7.08
2018-02-18T09:39:56.775Z,7.12
2018-02-18T09:40:56.747Z,7.08
2018-02-18T09:41:56.986Z,7.2
2018-02-18T09:42:56.963Z,7.24
2018-02-18T09:43:56.428Z,7.22
2018-02-18T09:44:56.872Z,7.13
2018-02-18T09:45:56.926Z,6.91
2018-02-18T09:46:56.901Z,6.98
2018-02-18T09:47:56.623Z,7.04
2018-02-18T09:48:56.872Z,7.15
2018-02-18T09:49:56.861Z,7.26
2018-02-18T09:50:56.563Z,7.02
2018-02-18T09:51:56.821Z,6.58
2018-02-18T09:52:56.793Z,6.41
2018-02-18T09:53:56.244Z,6.68
2018-02-18T09:54:56.717Z,7.29
2018-02-18T09:55:56.494Z,7.53
2018-02-18T09:56:56.470Z,7.74
2018-02-18T09:57:56.462Z,8.02
2018-02-18T09:58:56.695Z,8.15
2018-02-18T09:59:56.677Z,8.07
2018-02-18T10:00:56.394Z,7.67
2018-02-18T10:01:56.655Z,7.66
2018-02-18T10:02:56.370Z,7.47
2018-02-18T10:03:56.351Z,7.44
2018-02-18T10:04:56.594Z,7.38
2018-02-18T10:05:56.052Z,7.35
2018-02-18T10:06:56.559Z,7.32
2018-02-18T10:07:56.553Z,7.17
2018-02-18T10:08:55.994Z,7.09
2018-02-18T10:09:56.508Z,6.99
2018-02-18T10:10:56.495Z,7.24
2018-02-18T10:11:56.502Z,7.85
2018-02-18T10:12:56.456Z,8.03
2018-02-18T10:13:56.382Z,8.02
2018-02-18T10:14:56.419Z,7.96
2018-02-18T10:15:56.166Z,7.93
2018-02-18T10:16:56.124Z,7.78
2018-02-18T10:17:56.117Z,7.79
2018-02-18T10:18:56.097Z,7.81
2018-02-18T10:19:55.812Z,7.77
2018-02-18T10:20:56.068Z,7.75
2018-02-18T10:21:55.779Z,8.12
2018-02-18T10:22:55.773Z,8.29
2018-02-18T10:23:55.768Z,8.39
2018-02-18T10:24:56.048Z,8.71
2018-02-18T10:25:56.270Z,8.69
2018-02-18T10:26:56.248Z,8.65
2018-02-18T10:27:55.956Z,8.71
2018-02-18T10:28:57.684Z,8.44
2018-02-18T10:29:55.955Z,8.45
2018-02-18T10:30:55.911Z,8.69
2018-02-18T10:31:55.956Z,8.73
2018-02-18T10:32:55.626Z,8.63
2018-02-18T10:33:55.605Z,8.6
2018-02-18T10:34:56.137Z,8.68
2018-02-18T10:35:55.851Z,8.69
2018-02-18T10:36:55.831Z,8.68
2018-02-18T10:37:55.819Z,8.87
2018-02-18T10:38:55.799Z,8.81
2018-02-18T10:39:55.789Z,8.73
2018-02-18T10:40:56.050Z,8.6
2018-02-18T10:41:55.513Z,8.58
2018-02-18T10:42:56.016Z,8.71
2018-02-18T10:43:55.737Z,8.91
2018-02-18T10:44:55.986Z,8.58
2018-02-18T10:45:55.980Z,8.5
2018-02-18T10:46:55.964Z,8.58
2018-02-18T10:47:55.690Z,8.86
2018-02-18T10:48:55.955Z,8.88
2018-02-18T10:49:55.921Z,9.01
2018-02-18T10:50:55.912Z,8.94
2018-02-18T10:51:55.910Z,8.72
2018-02-18T10:52:55.877Z,8.57
2018-02-18T10:53:55.872Z,8.71
2018-02-18T10:54:55.327Z,8.72
2018-02-18T10:55:55.582Z,8.93
2018-02-18T10:56:55.574Z,8.84
2018-02-18T10:57:55.820Z,9.12
2018-02-18T10:58:55.540Z,9.28
2018-02-18T10:59:55.310Z,9.23
2018-02-18T11:00:55.780Z,9.21
2018-02-18T11:01:55.499Z,9.3
2018-02-18T11:02:55.775Z,9.16
2018-02-18T11:03:55.432Z,9.06
2018-02-18T11:04:55.223Z,8.96
2018-02-18T11:05:55.726Z,9.06
2018-02-18T11:06:55.433Z,9.12
2018-02-18T11:07:55.159Z,8.96
2018-02-18T11:08:55.407Z,8.93
2018-02-18T11:09:55.138Z,8.75
2018-02-18T11:10:55.579Z,8.57
2018-02-18T11:11:55.376Z,8.73
2018-02-18T11:12:55.624Z,8.73
2018-02-18T11:13:55.349Z,8.58
2018-02-18T11:14:55.337Z,8.48
2018-02-18T11:15:55.045Z,8.66
2018-02-18T11:16:55.560Z,8.72
2018-02-18T11:17:55.562Z,8.83
2018-02-18T11:18:55.011Z,8.93
2018-02-18T11:19:55.542Z,8.83
2018-02-18T11:20:55.252Z,8.94
2018-02-18T11:21:55.506Z,8.91
2018-02-18T11:22:54.961Z,9.12
2018-02-18T11:23:55.890Z,9.25
2018-02-18T11:24:55.200Z,9.45
2018-02-18T11:25:54.934Z,9.52
2018-02-18T11:26:55.451Z,9.66
2018-02-18T11:27:55.436Z,9.81
2018-02-18T11:28:55.166Z,9.85
2018-02-18T11:29:55.216Z,9.7
2018-02-18T11:30:55.398Z,9.81
2018-02-18T11:31:55.131Z,9.91
2018-02-18T11:32:55.367Z,9.88
2018-02-18T11:33:55.368Z,9.96
2018-02-18T11:34:55.346Z,10.03
2018-02-18T11:35:55.084Z,10.09
2018-02-18T11:36:55.055Z,10.28
2018-02-18T11:37:55.060Z,10.15
2018-02-18T11:38:54.771Z,10.33
2018-02-18T11:39:55.090Z,10.28
2018-02-18T11:40:54.815Z,10.33
2018-02-18T11:41:55.006Z,10.52
2018-02-18T11:42:54.723Z,10.42
2018-02-18T11:43:54.986Z,10.28
2018-02-18T11:44:54.970Z,10.58
2018-02-18T11:45:54.959Z,10.74
2018-02-18T11:46:55.219Z,10.95
2018-02-18T11:47:54.946Z,10.78
2018-02-18T11:48:55.195Z,10.98
2018-02-18T11:49:54.657Z,11.28
2018-02-18T11:50:54.643Z,11.46
2018-02-18T11:51:54.638Z,11.39
2018-02-18T11:52:54.904Z,11.29
2018-02-18T11:53:55.157Z,10.77
2018-02-18T11:54:54.879Z,10.65
2018-02-18T11:55:54.868Z,10.56
2018-02-18T11:56:54.852Z,10.3
2018-02-18T11:57:54.855Z,10.56
2018-02-18T11:58:54.840Z,10.81
2018-02-18T11:59:54.831Z,10.92
2018-02-18T12:00:55.085Z,11.09
2018-02-18T12:01:55.076Z,11.32
2018-02-18T12:02:54.813Z,11.53
2018-02-18T12:03:54.528Z,10.99
2018-02-18T12:04:54.783Z,11.01
2018-02-18T12:05:55.037Z,11.14
2018-02-18T12:06:54.770Z,11.19
2018-02-18T12:07:55.024Z,11.06
2018-02-18T12:08:54.742Z,11.32
2018-02-18T12:09:54.750Z,11.85
2018-02-18T12:10:54.728Z,12.2
2018-02-18T12:11:55.086Z,12.16
2018-02-18T12:12:54.719Z,12.05
2018-02-18T12:13:54.773Z,12.44
2018-02-18T12:14:54.698Z,11.96
2018-02-18T12:15:54.691Z,11.56
2018-02-18T12:16:54.686Z,11.85
2018-02-18T12:17:54.949Z,11.78
2018-02-18T12:18:54.402Z,11.2
2018-02-18T12:19:54.664Z,11.03
2018-02-18T12:20:54.919Z,11.14
2018-02-18T12:21:54.679Z,10.98
2018-02-18T12:22:54.372Z,10.96
2018-02-18T12:23:54.903Z,11.43
2018-02-18T12:24:54.893Z,11.07
2018-02-18T12:25:54.619Z,11.03
2018-02-18T12:26:54.617Z,11.35
2018-02-18T12:27:54.877Z,11.53
2018-02-18T12:28:54.877Z,11.7
2018-02-18T12:29:54.879Z,11.85
2018-02-18T12:30:54.856Z,12.04
2018-02-18T12:31:54.846Z,11.89
2018-02-18T12:32:54.308Z,12.21
2018-02-18T12:33:54.564Z,12.42
2018-02-18T12:34:54.564Z,12.67
2018-02-18T12:35:54.557Z,12.87
2018-02-18T12:36:54.817Z,12.13
2018-02-18T12:37:54.802Z,11.96
2018-02-18T12:38:54.801Z,12.45
2018-02-18T12:39:54.549Z,12.27
2018-02-18T12:40:54.524Z,12.52
2018-02-18T12:41:54.776Z,13.02
2018-02-18T12:42:54.778Z,12.67
2018-02-18T12:43:54.500Z,12.81
2018-02-18T12:44:54.771Z,12.54
2018-02-18T12:45:54.767Z,12.45
2018-02-18T12:46:54.769Z,12.48
2018-02-18T12:47:54.741Z,12.71
2018-02-18T12:48:54.748Z,12.49
2018-02-18T12:49:54.470Z,12.64
2018-02-18T12:50:54.483Z,13.17
2018-02-18T12:51:54.726Z,13.32
2018-02-18T12:52:54.456Z,13.17
2018-02-18T12:53:54.711Z,12.93
2018-02-18T12:54:54.717Z,12.66
2018-02-18T12:55:54.440Z,12.57
2018-02-18T12:56:54.446Z,12.49
2018-02-18T12:57:54.422Z,12.89
2018-02-18T12:58:54.446Z,13.3
2018-02-18T12:59:54.679Z,13.29
2018-02-18T13:00:54.170Z,13.11
2018-02-18T13:01:54.405Z,13.09
2018-02-18T13:02:54.447Z,13.29